Hydaburg, Alaska
Current Conditions -  °F | °C
As of 7:36 AM on Wednesday 22 Oct 2014 (Local Time) from PAHY Reporting Station
Overcast Overcast  
Wind Chill: 50°   Ceiling: 4600
Heat Index: 50°   Visibility: 10mi
Dew Point: 39°   Wind: 16mph
Humidity: 66%   Direction: 70°ENE
Pressure: 29.34"   Gusts: NA
Location:  55.21°N, 132.82°W
Report Text: PAHY 221536Z AUTO 07014KT 10SM FEW036 BKN046 OVC055 10/04 A2934 RMK AO1
Loading
Personal Weather Stations






























Interactive Weather Map
Tropical Storm Tracking
New forecast layout! Learn more

10-Day Weather Forecast

Advertisements
Track Severe Weather on mobile